Time,TemperatureF,DewpointF,PressureIn,WindDirection,WindDirectionDegrees,WindSpeedMPH,WindSpeedGustMPH,Humidity,HourlyPrecipIn,Conditions,Clouds,dailyrainin,SoftwareType,DateUTC
2013-01-11 00:07:00,31.7,31.0,30.18,ESE,120,0.0,0.0,95,0.00,,,0.00,weatherlink.com 1.10,2013-01-11 08:07:00,
2013-01-11 00:22:00,31.5,30.0,30.19,ESE,120,0.0,0.0,95,0.00,,,0.00,weatherlink.com 1.10,2013-01-11 08:22:00,
2013-01-11 00:37:00,31.4,30.0,30.19,ESE,120,0.0,1.0,95,0.00,,,0.00,weatherlink.com 1.10,2013-01-11 08:37:00,
2013-01-11 00:52:00,31.3,30.0,30.19,ESE,120,0.0,0.0,95,0.00,,,0.00,weatherlink.com 1.10,2013-01-11 08:52:00,
2013-01-11 01:07:00,31.2,30.0,30.19,ESE,120,0.0,1.0,95,0.00,,,0.00,weatherlink.com 1.10,2013-01-11 09:07:00,
2013-01-11 01:22:00,31.0,30.0,30.19,ESE,120,0.0,0.0,95,0.00,,,0.00,weatherlink.com 1.10,2013-01-11 09:22:00,
2013-01-11 01:37:00,30.8,30.0,30.19,ESE,120,0.0,0.0,95,0.00,,,0.00,weatherlink.com 1.10,2013-01-11 09:37:00,
2013-01-11 01:52:00,29.3,28.0,30.19,ESE,120,0.0,0.0,95,0.00,,,0.00,weatherlink.com 1.10,2013-01-11 09:52:00,
2013-01-11 02:07:00,-999.0,-99.9,30.19,North,-999,-999.0,-999.0,-999,0.00,,,0.00,weatherlink.com 1.10,2013-01-11 10:07:00,
2013-01-11 02:22:00,-999.0,-99.9,30.18,North,-999,-999.0,-999.0,-999,0.00,,,0.00,weatherlink.com 1.10,2013-01-11 10:22:00,
2013-01-11 02:52:00,-999.0,-99.9,30.18,North,-999,-999.0,-999.0,-999,0.00,,,0.00,weatherlink.com 1.10,2013-01-11 10:52:00,
2013-01-11 03:07:00,-999.0,-99.9,30.18,North,-999,-999.0,-999.0,-999,0.00,,,0.00,weatherlink.com 1.10,2013-01-11 11:07:00,
2013-01-11 03:22:00,-999.0,-99.9,30.18,North,-999,-999.0,-999.0,-999,0.00,,,0.00,weatherlink.com 1.10,2013-01-11 11:22:00,
2013-01-11 03:37:00,-999.0,-99.9,30.18,North,-999,-999.0,-999.0,-999,0.00,,,0.00,weatherlink.com 1.10,2013-01-11 11:37:00,
2013-01-11 03:52:00,-999.0,-99.9,30.18,North,-999,-999.0,-999.0,-999,0.00,,,0.00,weatherlink.com 1.10,2013-01-11 11:52:00,
2013-01-11 04:22:00,-999.0,-99.9,30.17,North,-999,-999.0,-999.0,-999,0.00,,,0.00,weatherlink.com 1.10,2013-01-11 12:22:00,
2013-01-11 04:38:00,-999.0,-99.9,30.18,North,-999,-999.0,-999.0,-999,0.00,,,0.00,weatherlink.com 1.10,2013-01-11 12:38:00,
2013-01-11 04:53:00,-999.0,-99.9,30.18,North,-999,-999.0,-999.0,-999,0.00,,,0.00,weatherlink.com 1.10,2013-01-11 12:53:00,
2013-01-11 05:08:00,-999.0,-99.9,30.19,North,-999,-999.0,-999.0,-999,0.00,,,0.00,weatherlink.com 1.10,2013-01-11 13:08:00,
2013-01-11 05:23:00,-999.0,-99.9,30.18,North,-999,-999.0,-999.0,-999,0.00,,,0.00,weatherlink.com 1.10,2013-01-11 13:23:00,
2013-01-11 05:38:00,-999.0,-99.9,30.19,North,-999,-999.0,-999.0,-999,0.00,,,0.00,weatherlink.com 1.10,2013-01-11 13:38:00,
2013-01-11 05:53:00,-999.0,-99.9,30.20,North,-999,-999.0,-999.0,-999,0.00,,,0.00,weatherlink.com 1.10,2013-01-11 13:53:00,
2013-01-11 06:08:00,-999.0,-99.9,30.21,North,-999,-999.0,-999.0,-999,0.00,,,0.00,weatherlink.com 1.10,2013-01-11 14:08:00,
2013-01-11 06:23:00,-999.0,-99.9,30.21,North,-999,-999.0,-999.0,-999,0.00,,,0.00,weatherlink.com 1.10,2013-01-11 14:23:00,
2013-01-11 06:38:00,-999.0,-99.9,30.21,North,-999,-999.0,-999.0,-999,0.00,,,0.00,weatherlink.com 1.10,2013-01-11 14:38:00,
2013-01-11 06:53:00,-999.0,-99.9,30.21,North,-999,-999.0,-999.0,-999,0.00,,,0.00,weatherlink.com 1.10,2013-01-11 14:53:00,
2013-01-11 07:08:00,-999.0,-99.9,30.22,North,-999,-999.0,-999.0,-999,0.00,,,0.00,weatherlink.com 1.10,2013-01-11 15:08:00,
2013-01-11 07:23:00,-999.0,-99.9,30.22,North,-999,-999.0,-999.0,-999,0.00,,,0.00,weatherlink.com 1.10,2013-01-11 15:23:00,
2013-01-11 07:38:00,-999.0,-99.9,30.22,North,-999,-999.0,-999.0,-999,0.00,,,0.00,weatherlink.com 1.10,2013-01-11 15:38:00,
2013-01-11 07:54:00,-999.0,-99.9,30.22,North,-999,-999.0,-999.0,-999,0.00,,,0.00,weatherlink.com 1.10,2013-01-11 15:54:00,
2013-01-11 08:09:00,-999.0,-99.9,30.23,North,-999,-999.0,-999.0,-999,0.00,,,0.00,weatherlink.com 1.10,2013-01-11 16:09:00,
2013-01-11 08:24:00,-999.0,-99.9,30.23,North,-999,-999.0,-999.0,-999,0.00,,,0.00,weatherlink.com 1.10,2013-01-11 16:24:00,
2013-01-11 08:39:00,-999.0,-99.9,30.24,North,-999,-999.0,-999.0,-999,0.00,,,0.00,weatherlink.com 1.10,2013-01-11 16:39:00,
2013-01-11 08:54:00,-999.0,-99.9,30.24,North,-999,-999.0,-999.0,-999,0.00,,,0.00,weatherlink.com 1.10,2013-01-11 16:54:00,
2013-01-11 09:09:00,-999.0,-99.9,30.24,North,-999,-999.0,-999.0,-999,0.00,,,0.00,weatherlink.com 1.10,2013-01-11 17:09:00,
2013-01-11 09:24:00,-999.0,-99.9,30.24,North,-999,-999.0,-999.0,-999,0.00,,,0.00,weatherlink.com 1.10,2013-01-11 17:24:00,
2013-01-11 09:39:00,-999.0,-99.9,30.23,North,-999,-999.0,-999.0,-999,0.00,,,0.00,weatherlink.com 1.10,2013-01-11 17:39:00,
2013-01-11 09:54:00,34.7,34.0,30.23,SSW,197,0.0,1.0,98,0.00,,,0.00,weatherlink.com 1.10,2013-01-11 17:54:00,
2013-01-11 10:09:00,36.3,36.0,30.24,SSW,197,0.0,0.0,98,0.00,,,0.00,weatherlink.com 1.10,2013-01-11 18:09:00,
2013-01-11 10:24:00,37.1,36.0,30.23,SSW,198,0.0,0.0,97,0.00,,,0.00,weatherlink.com 1.10,2013-01-11 18:24:00,
2013-01-11 10:39:00,38.3,37.0,30.23,WSW,253,0.0,1.0,96,0.00,,,0.00,weatherlink.com 1.10,2013-01-11 18:39:00,
2013-01-11 10:54:00,40.4,36.0,30.23,NW,304,0.0,1.0,85,0.00,,,0.00,weatherlink.com 1.10,2013-01-11 18:54:00,
2013-01-11 11:09:00,41.6,37.0,30.22,WNW,303,0.0,1.0,85,0.00,,,0.00,weatherlink.com 1.10,2013-01-11 19:09:00,
2013-01-11 11:24:00,42.2,37.0,30.21,SW,228,1.0,2.0,81,0.00,,,0.00,weatherlink.com 1.10,2013-01-11 19:24:00,
2013-01-11 11:39:00,42.8,36.0,30.20,WSW,241,1.0,2.0,78,0.00,,,0.00,weatherlink.com 1.10,2013-01-11 19:39:00,
2013-01-11 11:55:00,44.1,36.0,30.19,SSE,167,2.0,3.0,72,0.00,,,0.00,weatherlink.com 1.10,2013-01-11 19:55:00,
2013-01-11 12:10:00,44.3,37.0,30.18,SSW,206,0.0,3.0,75,0.00,,,0.00,weatherlink.com 1.10,2013-01-11 20:10:00,
2013-01-11 12:25:00,45.3,37.0,30.18,SSW,211,1.0,4.0,74,0.00,,,0.00,weatherlink.com 1.10,2013-01-11 20:25:00,
2013-01-11 12:40:00,45.6,36.0,30.17,SW,225,2.0,4.0,70,0.00,,,0.00,weatherlink.com 1.10,2013-01-11 20:40:00,
2013-01-11 12:55:00,46.1,37.0,30.16,SSW,205,1.0,4.0,70,0.00,,,0.00,weatherlink.com 1.10,2013-01-11 20:55:00,
2013-01-11 13:10:00,46.4,37.0,30.16,SSW,207,0.0,3.0,71,0.00,,,0.00,weatherlink.com 1.10,2013-01-11 21:10:00,
2013-01-11 13:25:00,46.7,36.0,30.15,West,269,1.0,6.0,67,0.00,,,0.00,weatherlink.com 1.10,2013-01-11 21:25:00,
2013-01-11 13:40:00,47.1,37.0,30.15,West,264,1.0,2.0,68,0.00,,,0.00,weatherlink.com 1.10,2013-01-11 21:40:00,
2013-01-11 13:55:00,47.7,38.0,30.15,NW,317,0.0,3.0,68,0.00,,,0.00,weatherlink.com 1.10,2013-01-11 21:55:00,
2013-01-11 14:10:00,47.7,38.0,30.15,NW,323,1.0,5.0,68,0.00,,,0.00,weatherlink.com 1.10,2013-01-11 22:10:00,
2013-01-11 14:25:00,47.6,37.0,30.15,West,260,3.0,3.0,68,0.00,,,0.00,weatherlink.com 1.10,2013-01-11 22:25:00,
2013-01-11 14:40:00,47.3,38.0,30.14,SSE,166,0.0,3.0,71,0.00,,,0.00,weatherlink.com 1.10,2013-01-11 22:40:00,
2013-01-11 14:55:00,47.3,38.0,30.14,West,265,0.0,3.0,71,0.00,,,0.00,weatherlink.com 1.10,2013-01-11 22:55:00,
2013-01-11 15:10:00,46.9,39.0,30.14,ESE,105,0.0,3.0,73,0.00,,,0.00,weatherlink.com 1.10,2013-01-11 23:10:00,
2013-01-11 15:25:00,46.3,38.0,30.14,WSW,245,0.0,3.0,73,0.00,,,0.00,weatherlink.com 1.10,2013-01-11 23:25:00,
2013-01-11 15:40:00,45.9,38.0,30.14,SW,214,1.0,4.0,75,0.00,,,0.00,weatherlink.com 1.10,2013-01-11 23:40:00,
2013-01-11 15:55:00,45.5,38.0,30.14,WSW,248,0.0,8.0,76,0.00,,,0.00,weatherlink.com 1.10,2013-01-11 23:55:00,
2013-01-11 16:10:00,45.5,39.0,30.13,SSW,207,2.0,6.0,77,0.00,,,0.00,weatherlink.com 1.10,2013-01-12 00:10:00,
2013-01-11 16:25:00,45.3,39.0,30.13,SSE,158,1.0,4.0,77,0.00,,,0.00,weatherlink.com 1.10,2013-01-12 00:25:00,
2013-01-11 16:40:00,45.0,39.0,30.13,SE,139,0.0,7.0,78,0.00,,,0.00,weatherlink.com 1.10,2013-01-12 00:40:00,
2013-01-11 16:55:00,44.7,39.0,30.12,SW,225,0.0,4.0,79,0.00,,,0.00,weatherlink.com 1.10,2013-01-12 00:55:00,
2013-01-11 17:10:00,44.1,39.0,30.12,SSW,197,0.0,2.0,81,0.00,,,0.00,weatherlink.com 1.10,2013-01-12 01:10:00,
2013-01-11 17:25:00,43.5,38.0,30.12,SSW,197,0.0,1.0,82,0.00,,,0.00,weatherlink.com 1.10,2013-01-12 01:25:00,
2013-01-11 17:40:00,42.7,39.0,30.12,SE,129,1.0,1.0,85,0.00,,,0.00,weatherlink.com 1.10,2013-01-12 01:40:00,
2013-01-11 17:55:00,41.8,39.0,30.12,SE,130,0.0,1.0,88,0.00,,,0.00,weatherlink.com 1.10,2013-01-12 01:55:00,
2013-01-11 18:10:00,41.2,38.0,30.12,SE,129,1.0,1.0,89,0.00,,,0.00,weatherlink.com 1.10,2013-01-12 02:10:00,
2013-01-11 18:25:00,40.7,38.0,30.12,SE,129,0.0,1.0,90,0.00,,,0.00,weatherlink.com 1.10,2013-01-12 02:25:00,
2013-01-11 18:40:00,40.4,38.0,30.12,SE,130,0.0,0.0,90,0.00,,,0.00,weatherlink.com 1.10,2013-01-12 02:40:00,
2013-01-11 18:55:00,39.7,37.0,30.12,SE,126,0.0,1.0,91,0.00,,,0.00,weatherlink.com 1.10,2013-01-12 02:55:00,
2013-01-11 19:10:00,39.0,37.0,30.12,SE,125,0.0,1.0,92,0.00,,,0.00,weatherlink.com 1.10,2013-01-12 03:10:00,
2013-01-11 19:25:00,38.4,37.0,30.12,SE,125,0.0,1.0,93,0.00,,,0.00,weatherlink.com 1.10,2013-01-12 03:25:00,
2013-01-11 19:40:00,38.0,36.0,30.12,SE,126,0.0,0.0,93,0.00,,,0.00,weatherlink.com 1.10,2013-01-12 03:40:00,
2013-01-11 19:55:00,37.6,36.0,30.12,SE,125,0.0,0.0,93,0.00,,,0.00,weatherlink.com 1.10,2013-01-12 03:55:00,
2013-01-11 20:10:00,37.2,36.0,30.12,SE,125,0.0,0.0,94,0.00,,,0.00,weatherlink.com 1.10,2013-01-12 04:10:00,
2013-01-11 20:25:00,36.9,35.0,30.12,SE,125,0.0,0.0,94,0.00,,,0.00,weatherlink.com 1.10,2013-01-12 04:25:00,
2013-01-11 20:40:00,36.5,35.0,30.13,SE,125,0.0,0.0,94,0.00,,,0.00,weatherlink.com 1.10,2013-01-12 04:40:00,
2013-01-11 20:55:00,36.1,35.0,30.13,SE,126,0.0,0.0,94,0.00,,,0.00,weatherlink.com 1.10,2013-01-12 04:55:00,
2013-01-11 21:10:00,35.6,34.0,30.13,SE,125,0.0,0.0,94,0.00,,,0.00,weatherlink.com 1.10,2013-01-12 05:10:00,
2013-01-11 21:25:00,35.5,34.0,30.13,SE,125,0.0,0.0,95,0.00,,,0.00,weatherlink.com 1.10,2013-01-12 05:25:00,
2013-01-11 21:40:00,35.5,34.0,30.13,SE,125,0.0,0.0,95,0.00,,,0.00,weatherlink.com 1.10,2013-01-12 05:40:00,
2013-01-11 21:55:00,35.3,34.0,30.13,SE,125,0.0,0.0,95,0.00,,,0.00,weatherlink.com 1.10,2013-01-12 05:55:00,
2013-01-11 22:10:00,35.2,34.0,30.13,SE,125,0.0,0.0,95,0.00,,,0.00,weatherlink.com 1.10,2013-01-12 06:10:00,
2013-01-11 22:25:00,35.1,34.0,30.14,SE,125,0.0,1.0,96,0.00,,,0.00,weatherlink.com 1.10,2013-01-12 06:25:00,
2013-01-11 22:40:00,36.9,36.0,30.15,SSE,166,0.0,2.0,97,0.00,,,0.00,weatherlink.com 1.10,2013-01-12 06:40:00,
2013-01-11 22:55:00,37.3,36.0,30.14,ESE,122,1.0,1.0,96,0.00,,,0.00,weatherlink.com 1.10,2013-01-12 06:55:00,
2013-01-11 23:10:00,37.5,37.0,30.14,SE,132,0.0,0.0,96,0.00,,,0.00,weatherlink.com 1.10,2013-01-12 07:10:00,
2013-01-11 23:25:00,37.2,36.0,30.14,SE,132,0.0,1.0,96,0.00,,,0.00,weatherlink.com 1.10,2013-01-12 07:25:00,
2013-01-11 23:40:00,36.8,36.0,30.14,SE,133,0.0,0.0,95,0.00,,,0.00,weatherlink.com 1.10,2013-01-12 07:40:00,
2013-01-11 23:55:00,36.3,35.0,30.14,SE,132,0.0,0.0,95,0.00,,,0.00,weatherlink.com 1.10,2013-01-12 07:55:00,